createdAt,value
2019-02-28T00:02:29.855Z,96.70
2019-02-28T00:04:58.335Z,96.90
2019-02-28T00:07:34.610Z,97.00
2019-02-28T00:10:08.946Z,96.70
2019-02-28T00:12:40.050Z,96.80
2019-02-28T00:15:14.205Z,97.00
2019-02-28T00:17:45.617Z,97.10
2019-02-28T00:20:25.621Z,97.20
2019-02-28T00:22:56.746Z,97.10
2019-02-28T00:25:29.441Z,97.10
2019-02-28T00:27:57.862Z,97.00
2019-02-28T00:30:29.101Z,97.50
2019-02-28T00:32:59.372Z,97.10
2019-02-28T00:35:30.122Z,97.20
2019-02-28T00:38:04.381Z,97.20
2019-02-28T00:40:38.535Z,97.30
2019-02-28T00:43:10.242Z,97.40
2019-02-28T00:45:38.663Z,97.50
2019-02-28T00:48:07.382Z,97.50
2019-02-28T00:50:35.795Z,97.50
2019-02-28T00:53:11.709Z,97.50
2019-02-28T00:55:40.118Z,97.50
2019-02-28T00:58:08.537Z,97.40
2019-02-28T01:00:38.164Z,97.20
2019-02-28T01:03:08.538Z,97.30
2019-02-28T01:05:41.410Z,97.20
2019-02-28T01:08:12.713Z,97.20
2019-02-28T01:10:42.838Z,97.20
2019-02-28T01:13:42.894Z,97.30
2019-02-28T01:15:44.857Z,97.40
2019-02-28T01:18:19.183Z,97.40
2019-02-28T01:20:56.607Z,97.50
2019-02-28T01:23:30.463Z,97.80
2019-02-28T01:26:07.829Z,97.80
2019-02-28T01:28:40.019Z,97.90
2019-02-28T01:31:11.666Z,98.10
2019-02-28T01:33:42.593Z,98.30
2019-02-28T01:36:15.554Z,98.20
2019-02-28T01:38:51.908Z,98.30
2019-02-28T01:41:20.314Z,98.20
2019-02-28T01:43:51.850Z,98.30
2019-02-28T01:46:21.912Z,98.30
2019-02-28T01:48:55.218Z,98.50
2019-02-28T01:51:36.581Z,98.30
2019-02-28T01:54:05.778Z,98.40
2019-02-28T01:56:37.889Z,98.20
2019-02-28T01:59:12.585Z,98.20
2019-02-28T02:01:43.729Z,98.20
2019-02-28T02:04:17.935Z,98.20
2019-02-28T02:06:47.416Z,98.30
2019-02-28T02:09:20.226Z,98.30
2019-02-28T02:11:54.385Z,98.40
2019-02-28T02:14:31.817Z,98.50
2019-02-28T02:17:02.266Z,98.50
2019-02-28T02:19:30.489Z,98.70
2019-02-28T02:22:09.193Z,98.60
2019-02-28T02:24:35.302Z,98.60
2019-02-28T02:27:03.789Z,98.60
2019-02-28T02:29:32.382Z,98.60
2019-02-28T02:32:08.141Z,98.60
2019-02-28T02:34:36.590Z,98.70
2019-02-28T02:37:05.022Z,98.50
2019-02-28T02:39:36.441Z,98.70
2019-02-28T02:42:11.444Z,98.70
2019-02-28T02:44:37.919Z,99.00
2019-02-28T02:47:06.344Z,98.70
2019-02-28T02:49:34.769Z,98.80
2019-02-28T02:52:04.083Z,98.80
2019-02-28T02:54:37.855Z,99.00
2019-02-28T02:57:09.240Z,99.00
2019-02-28T02:59:39.623Z,99.00
2019-02-28T03:02:08.049Z,98.90
2019-02-28T03:04:39.416Z,98.90
2019-02-28T03:07:07.850Z,99.10
2019-02-28T03:09:36.266Z,99.10
2019-02-28T03:12:06.709Z,99.10
2019-02-28T03:14:35.129Z,99.40
2019-02-28T03:17:09.658Z,99.50
2019-02-28T03:19:35.325Z,99.50
2019-02-28T03:22:03.734Z,99.40
2019-02-28T03:24:32.163Z,99.90
2019-02-28T03:27:00.869Z,99.90
2019-02-28T03:29:29.290Z,99.90
2019-02-28T03:32:06.143Z,99.90
2019-02-28T03:34:40.403Z,99.90
2019-02-28T03:37:08.891Z,99.90
2019-02-28T03:39:37.306Z,99.90
2019-02-28T03:42:05.745Z,99.90
2019-02-28T03:44:34.201Z,99.90
2019-02-28T03:47:02.628Z,99.90
2019-02-28T03:49:31.053Z,99.90
2019-02-28T03:52:06.660Z,99.90
2019-02-28T03:54:32.653Z,99.90
2019-02-28T03:57:05.622Z,99.90
2019-02-28T03:59:38.537Z,99.90
2019-02-28T04:02:08.612Z,99.90
2019-02-28T04:04:39.723Z,99.90
2019-02-28T04:07:15.541Z,99.90
2019-02-28T04:09:45.176Z,99.90
2019-02-28T04:12:15.361Z,99.90
2019-02-28T04:14:46.726Z,99.90
2019-02-28T04:17:29.828Z,99.90
2019-02-28T04:19:59.994Z,99.90
2019-02-28T04:22:29.487Z,99.90
2019-02-28T04:25:02.694Z,99.90
2019-02-28T04:27:34.364Z,99.90
2019-02-28T04:30:08.602Z,99.90
2019-02-28T04:32:41.523Z,99.90
2019-02-28T04:35:10.486Z,99.90
2019-02-28T04:37:44.893Z,99.90
2019-02-28T04:40:14.658Z,99.90
2019-02-28T04:42:46.037Z,99.90
2019-02-28T04:45:16.698Z,99.90
2019-02-28T04:47:47.929Z,99.90
2019-02-28T04:50:19.469Z,99.90
2019-02-28T04:52:48.291Z,99.90
2019-02-28T04:55:17.794Z,99.90
2019-02-28T04:57:56.090Z,99.90
2019-02-28T05:00:27.242Z,99.90
2019-02-28T05:02:55.657Z,99.90
2019-02-28T05:05:25.131Z,99.90
2019-02-28T05:08:05.827Z,99.90
2019-02-28T05:10:32.729Z,99.90
2019-02-28T05:13:01.145Z,99.90
2019-02-28T05:15:38.474Z,99.90
2019-02-28T05:18:09.049Z,99.20
2019-02-28T05:20:45.116Z,97.60
2019-02-28T05:23:10.598Z,96.50
2019-02-28T05:25:41.691Z,95.60
2019-02-28T05:28:12.450Z,94.70
2019-02-28T05:30:43.933Z,94.40
2019-02-28T05:33:15.305Z,94.10
2019-02-28T05:35:49.123Z,94.00
2019-02-28T05:38:20.737Z,93.90
2019-02-28T05:40:50.577Z,94.00
2019-02-28T05:43:20.629Z,94.50
2019-02-28T05:45:52.473Z,94.10
2019-02-28T05:48:25.370Z,94.70
2019-02-28T05:50:56.442Z,94.90
2019-02-28T05:53:27.827Z,95.00
2019-02-28T05:55:59.748Z,95.20
2019-02-28T05:58:40.193Z,95.90
2019-02-28T06:01:16.254Z,96.30
2019-02-28T06:03:44.670Z,96.60
2019-02-28T06:06:17.275Z,96.70
2019-02-28T06:08:44.962Z,97.40
2019-02-28T06:11:17.944Z,97.90
2019-02-28T06:13:49.639Z,97.90
2019-02-28T06:16:19.544Z,97.50
2019-02-28T06:18:49.589Z,97.20
2019-02-28T06:21:18.021Z,96.80
2019-02-28T06:23:54.445Z,95.40
2019-02-28T06:26:22.875Z,94.00
2019-02-28T06:28:51.610Z,92.50
2019-02-28T06:31:22.962Z,90.30
2019-02-28T06:34:05.668Z,86.00
2019-02-28T06:36:35.929Z,80.70
2019-02-28T06:39:09.801Z,75.80
2019-02-28T06:41:50.294Z,69.10
2019-02-28T06:44:27.051Z,64.80
2019-02-28T06:46:58.621Z,59.60
2019-02-28T06:49:32.274Z,56.80
2019-02-28T06:52:04.922Z,54.50
2019-02-28T06:54:42.065Z,50.30
2019-02-28T06:57:14.889Z,47.30
2019-02-28T06:59:43.305Z,45.00
2019-02-28T07:02:11.984Z,43.00
2019-02-28T07:04:52.338Z,40.50
2019-02-28T07:07:26.506Z,39.20
2019-02-28T07:09:54.922Z,37.50
2019-02-28T07:12:29.514Z,37.10
2019-02-28T07:14:59.294Z,36.40
2019-02-28T07:17:29.366Z,36.00
2019-02-28T07:20:04.266Z,34.90
2019-02-28T07:22:35.498Z,34.50
2019-02-28T07:25:09.462Z,33.30
2019-02-28T07:27:42.973Z,33.30
2019-02-28T07:30:19.616Z,32.90
2019-02-28T07:32:54.150Z,32.20
2019-02-28T07:35:25.664Z,31.70
2019-02-28T07:37:55.763Z,31.30
2019-02-28T07:40:24.237Z,30.40
2019-02-28T07:42:55.340Z,30.00
2019-02-28T07:45:29.696Z,30.30
2019-02-28T07:47:59.493Z,29.70
2019-02-28T07:50:32.475Z,29.20
2019-02-28T07:53:09.824Z,29.30
2019-02-28T07:55:41.338Z,29.30
2019-02-28T07:58:11.436Z,29.00
2019-02-28T08:00:45.758Z,28.50
2019-02-28T08:03:17.421Z,28.40
2019-02-28T08:05:45.860Z,28.30
2019-02-28T08:08:18.455Z,27.80
2019-02-28T08:10:55.906Z,27.60
2019-02-28T08:13:26.158Z,27.20
2019-02-28T08:15:56.842Z,27.40
2019-02-28T08:18:27.217Z,27.30
2019-02-28T08:20:58.134Z,28.00
2019-02-28T08:23:30.248Z,28.20
2019-02-28T08:26:02.522Z,28.50
2019-02-28T08:28:36.749Z,28.40
2019-02-28T08:31:04.480Z,28.10
2019-02-28T08:33:38.588Z,27.70
2019-02-28T08:36:12.675Z,27.80
2019-02-28T08:38:46.954Z,27.30
2019-02-28T08:41:18.600Z,27.50
2019-02-28T08:43:49.946Z,27.90
2019-02-28T08:46:19.214Z,27.90
2019-02-28T08:48:47.944Z,28.10
2019-02-28T08:51:16.403Z,28.70
2019-02-28T08:53:50.799Z,29.60
2019-02-28T08:56:20.675Z,28.80
2019-02-28T08:58:51.103Z,28.10
2019-02-28T09:01:21.177Z,28.20
2019-02-28T09:03:52.114Z,27.90
2019-02-28T09:06:37.937Z,28.20
2019-02-28T09:09:15.401Z,28.40
2019-02-28T09:11:44.221Z,28.00
2019-02-28T09:14:17.998Z,27.60
2019-02-28T09:16:59.113Z,27.60
2019-02-28T09:19:27.543Z,27.10
2019-02-28T09:22:03.866Z,26.50
2019-02-28T09:24:35.121Z,26.80
2019-02-28T09:27:04.078Z,26.40
2019-02-28T09:29:38.882Z,26.50
2019-02-28T09:32:13.609Z,26.80
2019-02-28T09:34:41.208Z,26.60
2019-02-28T09:37:09.943Z,25.80
2019-02-28T09:39:38.403Z,25.80
2019-02-28T09:42:14.862Z,25.70
2019-02-28T09:44:45.599Z,25.80
2019-02-28T09:47:16.758Z,25.50
2019-02-28T09:49:47.162Z,25.40
2019-02-28T09:52:17.307Z,25.60
2019-02-28T09:54:45.727Z,25.10
2019-02-28T09:57:15.404Z,24.90
2019-02-28T09:59:56.326Z,25.00
2019-02-28T10:02:26.406Z,25.30
2019-02-28T10:05:06.588Z,25.30
2019-02-28T10:07:41.630Z,25.30
2019-02-28T10:10:22.055Z,25.10
2019-02-28T10:12:53.566Z,25.50
2019-02-28T10:15:27.140Z,25.90
2019-02-28T10:17:57.208Z,26.30
2019-02-28T10:20:41.834Z,27.50
2019-02-28T10:23:09.106Z,27.70
2019-02-28T10:25:43.706Z,27.60
2019-02-28T10:28:16.619Z,27.80
2019-02-28T10:30:47.179Z,27.50
2019-02-28T10:33:17.176Z,27.70
2019-02-28T10:35:48.486Z,28.40
2019-02-28T10:38:18.567Z,29.00
2019-02-28T10:40:49.361Z,29.50
2019-02-28T10:43:20.046Z,29.90
2019-02-28T10:45:56.961Z,29.40
2019-02-28T10:48:29.758Z,28.50
2019-02-28T10:51:01.354Z,28.60
2019-02-28T10:53:36.229Z,28.40
2019-02-28T10:56:05.330Z,28.70
2019-02-28T10:58:33.755Z,28.80
2019-02-28T11:01:11.362Z,28.60
2019-02-28T11:03:44.894Z,28.10
2019-02-28T11:06:13.486Z,28.30
2019-02-28T11:08:47.455Z,28.90
2019-02-28T11:11:17.519Z,29.50
2019-02-28T11:13:47.582Z,29.90
2019-02-28T11:16:23.586Z,30.00
2019-02-28T11:18:51.929Z,29.70
2019-02-28T11:21:23.553Z,30.50
2019-02-28T11:23:54.688Z,31.20
2019-02-28T11:26:29.154Z,32.30
2019-02-28T11:29:02.874Z,33.50
2019-02-28T11:31:32.805Z,34.60
2019-02-28T11:34:04.362Z,34.70
2019-02-28T11:36:34.168Z,34.70
2019-02-28T11:39:04.966Z,35.40
2019-02-28T11:41:36.369Z,35.20
2019-02-28T11:44:04.792Z,34.20
2019-02-28T11:46:36.560Z,33.70
2019-02-28T11:49:13.786Z,33.60
2019-02-28T11:51:49.422Z,33.10
2019-02-28T11:54:18.479Z,32.80
2019-02-28T11:56:52.733Z,32.20
2019-02-28T11:59:25.326Z,32.40
2019-02-28T12:01:53.833Z,33.90
2019-02-28T12:04:32.450Z,33.80
2019-02-28T12:07:05.601Z,33.90
2019-02-28T12:09:35.651Z,34.90
2019-02-28T12:12:10.424Z,35.10
2019-02-28T12:14:38.981Z,36.00
2019-02-28T12:17:15.016Z,36.30
2019-02-28T12:19:47.590Z,36.70
2019-02-28T12:22:20.394Z,36.80
2019-02-28T12:24:50.459Z,37.70
2019-02-28T12:27:24.412Z,38.30
2019-02-28T12:30:10.582Z,37.80
2019-02-28T12:32:40.266Z,38.50
2019-02-28T12:35:12.662Z,40.70
2019-02-28T12:37:42.737Z,42.60
2019-02-28T12:40:31.941Z,44.10
2019-02-28T12:43:08.539Z,44.60
2019-02-28T12:45:38.076Z,45.70
2019-02-28T12:48:08.158Z,47.20
2019-02-28T12:50:36.573Z,46.40
2019-02-28T12:53:06.986Z,45.20
2019-02-28T12:55:39.119Z,43.80
2019-02-28T12:58:07.345Z,43.80
2019-02-28T13:00:37.811Z,43.30
2019-02-28T13:03:12.395Z,43.30
2019-02-28T13:05:40.885Z,41.20
2019-02-28T13:08:09.934Z,41.40
2019-02-28T13:10:42.180Z,40.80
2019-02-28T13:13:13.866Z,41.50
2019-02-28T13:15:46.839Z,40.60
2019-02-28T13:18:18.203Z,40.10
2019-02-28T13:20:49.683Z,41.40
2019-02-28T13:23:18.101Z,44.00
2019-02-28T13:25:51.835Z,44.20
2019-02-28T13:28:24.821Z,44.80
2019-02-28T13:30:53.418Z,44.60
2019-02-28T13:33:25.211Z,45.50
2019-02-28T13:35:56.953Z,47.30
2019-02-28T13:38:31.198Z,48.10
2019-02-28T13:41:02.391Z,49.00
2019-02-28T13:43:35.198Z,49.90
2019-02-28T13:46:04.095Z,50.40
2019-02-28T13:48:34.981Z,51.00
2019-02-28T13:51:08.507Z,50.30
2019-02-28T13:53:39.513Z,51.00
2019-02-28T13:56:11.169Z,51.40
2019-02-28T13:58:39.607Z,51.20
2019-02-28T14:01:10.720Z,51.00
2019-02-28T14:03:42.318Z,50.60
2019-02-28T14:06:18.876Z,51.20
2019-02-28T14:08:46.110Z,51.30
2019-02-28T14:11:20.114Z,50.50
2019-02-28T14:13:51.346Z,51.40
2019-02-28T14:16:26.395Z,51.10
2019-02-28T14:18:58.151Z,51.70
2019-02-28T14:21:26.737Z,52.10
2019-02-28T14:24:01.164Z,50.80
2019-02-28T14:26:32.243Z,51.00
2019-02-28T14:29:03.632Z,51.00
2019-02-28T14:31:32.971Z,51.70
2019-02-28T14:34:02.535Z,50.70
2019-02-28T14:36:35.737Z,51.70
2019-02-28T14:39:08.280Z,51.10
2019-02-28T14:41:41.963Z,51.20
2019-02-28T14:44:13.106Z,51.80
2019-02-28T14:46:44.293Z,52.50
2019-02-28T14:49:13.653Z,53.60
2019-02-28T14:51:42.349Z,53.60
2019-02-28T14:54:14.121Z,54.10
2019-02-28T14:56:54.389Z,54.30
2019-02-28T14:59:22.810Z,54.30
2019-02-28T15:02:00.205Z,53.20
2019-02-28T15:04:32.859Z,53.00
2019-02-28T15:07:04.355Z,51.60
2019-02-28T15:09:50.058Z,51.20
2019-02-28T15:12:24.600Z,50.90
2019-02-28T15:14:54.713Z,49.70
2019-02-28T15:17:24.806Z,50.80
2019-02-28T15:19:53.224Z,49.70
2019-02-28T15:22:30.981Z,49.70
2019-02-28T15:25:08.021Z,50.40
2019-02-28T15:27:39.880Z,50.50
2019-02-28T15:30:33.741Z,50.10
2019-02-28T15:33:04.725Z,50.90
2019-02-28T15:35:33.223Z,51.00
2019-02-28T15:38:01.661Z,51.60
2019-02-28T15:40:35.439Z,51.60
2019-02-28T15:43:04.038Z,51.60
2019-02-28T15:45:36.574Z,51.50
2019-02-28T15:48:05.743Z,51.60
2019-02-28T15:50:35.525Z,52.30
2019-02-28T15:53:04.325Z,52.90
2019-02-28T15:55:36.562Z,52.90
2019-02-28T15:58:05.859Z,52.80
2019-02-28T16:00:36.393Z,53.50
2019-02-28T16:03:05.617Z,54.60
2019-02-28T16:05:42.538Z,55.00
2019-02-28T16:08:10.815Z,55.70
2019-02-28T16:10:41.062Z,56.30
2019-02-28T16:13:09.491Z,57.50
2019-02-28T16:15:43.186Z,58.10
2019-02-28T16:18:18.737Z,59.00
2019-02-28T16:20:47.171Z,59.70
2019-02-28T16:23:16.016Z,60.50
2019-02-28T16:25:47.865Z,61.50
2019-02-28T16:28:17.287Z,62.40
2019-02-28T16:30:45.782Z,62.90
2019-02-28T16:33:14.213Z,64.20
2019-02-28T16:35:46.671Z,65.20
2019-02-28T16:38:19.861Z,66.30
2019-02-28T16:40:48.566Z,67.10
2019-02-28T16:43:17.410Z,68.90
2019-02-28T16:45:57.504Z,70.80
2019-02-28T16:48:26.194Z,72.30
2019-02-28T16:50:57.857Z,73.70
2019-02-28T16:53:32.566Z,74.50
2019-02-28T16:56:10.874Z,75.30
2019-02-28T16:58:40.382Z,77.20
2019-02-28T17:01:09.090Z,78.10
2019-02-28T17:03:38.416Z,78.80
2019-02-28T17:06:07.648Z,79.40
2019-02-28T17:08:37.805Z,79.50
2019-02-28T17:11:06.231Z,79.80
2019-02-28T17:13:38.872Z,80.60
2019-02-28T17:16:14.049Z,81.00
2019-02-28T17:18:48.470Z,81.70
2019-02-28T17:21:18.077Z,82.40
2019-02-28T17:23:49.681Z,82.60
2019-02-28T17:26:22.674Z,82.90
2019-02-28T17:28:58.430Z,83.60
2019-02-28T17:31:28.509Z,83.90
2019-02-28T17:33:58.539Z,84.40
2019-02-28T17:36:32.988Z,84.50
2019-02-28T17:39:01.713Z,84.60
2019-02-28T17:41:33.870Z,84.90
2019-02-28T17:44:28.806Z,84.90
2019-02-28T17:47:00.661Z,85.40
2019-02-28T17:49:49.823Z,85.60
2019-02-28T17:52:46.986Z,86.80
2019-02-28T17:55:34.810Z,86.20
2019-02-28T17:58:18.204Z,86.30
2019-02-28T18:01:13.831Z,86.20
2019-02-28T18:03:48.464Z,86.30
2019-02-28T18:06:33.189Z,86.70
2019-02-28T18:09:19.589Z,87.00
2019-02-28T18:12:23.506Z,87.10
2019-02-28T18:15:09.658Z,87.50
2019-02-28T18:17:41.302Z,87.50
2019-02-28T18:20:38.839Z,87.50
2019-02-28T18:23:21.091Z,88.00
2019-02-28T18:26:09.770Z,88.30
2019-02-28T18:28:58.034Z,88.50
2019-02-28T18:31:25.849Z,88.70
2019-02-28T18:33:58.302Z,89.00
2019-02-28T18:36:32.506Z,89.00
2019-02-28T18:39:04.802Z,89.20
2019-02-28T18:41:35.116Z,89.50
2019-02-28T18:44:04.962Z,89.50
2019-02-28T18:46:33.661Z,89.50
2019-02-28T18:49:14.077Z,89.70
2019-02-28T18:51:45.597Z,89.90
2019-02-28T18:54:16.274Z,90.20
2019-02-28T18:56:44.665Z,90.20
2019-02-28T18:59:16.352Z,90.20
2019-02-28T19:01:44.807Z,90.30
2019-02-28T19:04:13.227Z,90.50
2019-02-28T19:06:44.327Z,90.30
2019-02-28T19:09:24.644Z,90.50
2019-02-28T19:11:55.807Z,90.70
2019-02-28T19:14:24.246Z,90.70
2019-02-28T19:16:52.681Z,90.70
2019-02-28T19:19:32.585Z,90.70
2019-02-28T19:22:03.955Z,90.70
2019-02-28T19:24:32.409Z,90.70
2019-02-28T19:27:06.292Z,90.80
2019-02-28T19:29:34.779Z,90.80
2019-02-28T19:32:05.169Z,90.70
2019-02-28T19:34:41.989Z,90.70
2019-02-28T19:37:12.654Z,90.70
2019-02-28T19:39:42.912Z,90.70
2019-02-28T19:42:18.473Z,90.70
2019-02-28T19:44:47.107Z,90.70
2019-02-28T19:47:15.534Z,90.50
2019-02-28T19:49:45.604Z,90.90
2019-02-28T19:52:14.034Z,91.20
2019-02-28T19:54:45.650Z,91.40
2019-02-28T19:57:14.075Z,91.60
2019-02-28T19:59:48.438Z,92.00
2019-02-28T20:02:21.230Z,92.00
2019-02-28T20:04:55.363Z,91.90
2019-02-28T20:07:26.338Z,91.80
2019-02-28T20:09:56.293Z,91.70
2019-02-28T20:12:28.248Z,91.70
2019-02-28T20:14:56.692Z,91.60
2019-02-28T20:17:30.733Z,91.60
2019-02-28T20:20:05.174Z,91.50
2019-02-28T20:22:38.343Z,91.60
2019-02-28T20:25:05.413Z,91.70
2019-02-28T20:27:45.264Z,91.70
2019-02-28T20:30:18.234Z,91.80
2019-02-28T20:32:46.657Z,91.70
2019-02-28T20:35:15.529Z,91.80
2019-02-28T20:37:44.113Z,91.70
2019-02-28T20:40:15.388Z,91.80
2019-02-28T20:42:43.830Z,91.80
2019-02-28T20:45:17.028Z,92.00
2019-02-28T20:47:45.454Z,91.90
2019-02-28T20:50:26.882Z,92.00
2019-02-28T20:52:55.299Z,92.20
2019-02-28T20:55:26.389Z,92.40
2019-02-28T20:57:54.801Z,93.00
2019-02-28T21:00:24.858Z,92.80
2019-02-28T21:02:55.896Z,93.00
2019-02-28T21:05:32.489Z,93.10
2019-02-28T21:08:02.634Z,93.20
2019-02-28T21:10:32.699Z,93.50
2019-02-28T21:13:02.760Z,93.90
2019-02-28T21:15:33.737Z,93.70
2019-02-28T21:18:02.185Z,93.90
2019-02-28T21:20:30.629Z,94.90
2019-02-28T21:23:08.166Z,95.50
2019-02-28T21:25:41.133Z,96.00
2019-02-28T21:28:17.974Z,96.70
2019-02-28T21:30:46.414Z,97.20
2019-02-28T21:33:20.121Z,97.70
2019-02-28T21:35:51.466Z,98.20
2019-02-28T21:38:22.638Z,98.10
2019-02-28T21:40:53.776Z,98.20
2019-02-28T21:43:26.801Z,98.50
2019-02-28T21:45:59.421Z,98.80
2019-02-28T21:48:29.486Z,99.00
2019-02-28T21:50:59.620Z,98.80
2019-02-28T21:53:34.273Z,98.80
2019-02-28T21:56:09.810Z,98.70
2019-02-28T21:58:38.233Z,98.80
2019-02-28T22:01:08.566Z,98.90
2019-02-28T22:03:36.979Z,99.10
2019-02-28T22:06:11.005Z,99.30
2019-02-28T22:08:41.095Z,99.50
2019-02-28T22:11:14.215Z,99.60
2019-02-28T22:13:45.337Z,99.70
2019-02-28T22:16:25.111Z,99.80
2019-02-28T22:18:56.266Z,99.90
2019-02-28T22:21:35.209Z,99.90
2019-02-28T22:24:06.050Z,99.80
2019-02-28T22:26:40.262Z,99.90
2019-02-28T22:29:10.336Z,99.90
2019-02-28T22:31:52.386Z,99.80
2019-02-28T22:34:22.446Z,99.80
2019-02-28T22:36:55.086Z,99.70
2019-02-28T22:39:25.974Z,99.60
2019-02-28T22:41:54.654Z,99.50
2019-02-28T22:44:23.082Z,99.50
2019-02-28T22:46:57.542Z,99.40
2019-02-28T22:49:29.118Z,99.30
2019-02-28T22:52:00.488Z,98.80
2019-02-28T22:54:28.920Z,98.50
2019-02-28T22:57:03.127Z,98.50
2019-02-28T22:59:33.198Z,98.30
2019-02-28T23:02:01.627Z,98.20
2019-02-28T23:04:34.385Z,97.90
2019-02-28T23:07:08.538Z,97.90
2019-02-28T23:09:37.033Z,98.00
2019-02-28T23:12:08.530Z,97.70
2019-02-28T23:14:38.603Z,97.80
2019-02-28T23:17:10.087Z,98.20
2019-02-28T23:19:38.515Z,97.70
2019-02-28T23:22:11.231Z,97.70
2019-02-28T23:24:46.014Z,97.70
2019-02-28T23:27:23.618Z,97.60
2019-02-28T23:29:55.117Z,97.60
2019-02-28T23:32:37.141Z,97.60
2019-02-28T23:35:18.975Z,97.80
2019-02-28T23:37:49.035Z,97.60
2019-02-28T23:40:22.035Z,97.60
2019-02-28T23:42:53.309Z,97.60
2019-02-28T23:45:27.592Z,97.70
2019-02-28T23:47:58.927Z,97.70
2019-02-28T23:50:28.995Z,97.80
2019-02-28T23:52:59.054Z,97.90
2019-02-28T23:55:39.437Z,97.80
2019-02-28T23:58:07.863Z,98.00
